sensor_id;sensor_type;location;lat;lon;timestamp;pressure;altitude;pressure_sealevel;temperature;humidity
7930;BME280;4010;42.698;23.124;2023-02-01T00:01:30;118349.16;;;-140.64;90.86
7930;BME280;4010;42.698;23.124;2023-02-01T00:03:57;118349.16;;;-140.64;91.24
7930;BME280;4010;42.698;23.124;2023-02-01T00:06:24;118349.16;;;-140.64;91.42
7930;BME280;4010;42.698;23.124;2023-02-01T00:08:52;118349.16;;;-140.64;91.37
7930;BME280;4010;42.698;23.124;2023-02-01T00:11:19;118349.16;;;-140.64;91.07
7930;BME280;4010;42.698;23.124;2023-02-01T00:13:46;118349.16;;;-140.64;90.75
7930;BME280;4010;42.698;23.124;2023-02-01T00:16:16;118349.16;;;-140.64;91.22
7930;BME280;4010;42.698;23.124;2023-02-01T00:18:44;118349.16;;;-140.64;90.46
7930;BME280;4010;42.698;23.124;2023-02-01T00:21:11;118349.16;;;-140.64;90.00
7930;BME280;4010;42.698;23.124;2023-02-01T00:23:38;118349.16;;;-140.64;90.29
7930;BME280;4010;42.698;23.124;2023-02-01T00:26:06;118349.16;;;-140.64;89.68
7930;BME280;4010;42.698;23.124;2023-02-01T00:28:34;118349.16;;;-140.64;89.40
7930;BME280;4010;42.698;23.124;2023-02-01T00:31:02;118349.16;;;-140.64;89.41
7930;BME280;4010;42.698;23.124;2023-02-01T00:33:31;118349.16;;;-140.64;89.54
7930;BME280;4010;42.698;23.124;2023-02-01T00:35:59;118349.16;;;-140.64;89.22
7930;BME280;4010;42.698;23.124;2023-02-01T00:38:27;118349.16;;;-140.64;89.49
7930;BME280;4010;42.698;23.124;2023-02-01T00:40:54;118349.16;;;-140.64;89.37
7930;BME280;4010;42.698;23.124;2023-02-01T00:43:21;118349.16;;;-140.64;89.61
7930;BME280;4010;42.698;23.124;2023-02-01T00:45:47;118349.16;;;-140.64;89.71
7930;BME280;4010;42.698;23.124;2023-02-01T00:48:14;118349.16;;;-140.64;89.75
7930;BME280;4010;42.698;23.124;2023-02-01T00:50:43;118349.16;;;-140.64;90.62
7930;BME280;4010;42.698;23.124;2023-02-01T00:53:09;118349.16;;;-140.64;91.10
7930;BME280;4010;42.698;23.124;2023-02-01T00:55:36;118349.16;;;-140.64;91.06
7930;BME280;4010;42.698;23.124;2023-02-01T00:58:03;118349.16;;;-140.64;91.35
7930;BME280;4010;42.698;23.124;2023-02-01T01:00:31;118349.16;;;-140.64;90.86
7930;BME280;4010;42.698;23.124;2023-02-01T01:02:58;118349.16;;;-140.64;91.33
7930;BME280;4010;42.698;23.124;2023-02-01T01:05:24;118349.16;;;-140.64;91.25
7930;BME280;4010;42.698;23.124;2023-02-01T01:07:54;118349.16;;;-140.64;90.96
7930;BME280;4010;42.698;23.124;2023-02-01T01:10:20;118349.16;;;-140.64;91.14
7930;BME280;4010;42.698;23.124;2023-02-01T01:12:47;118349.16;;;-140.64;90.97
7930;BME280;4010;42.698;23.124;2023-02-01T01:15:14;118349.16;;;-140.64;91.52
7930;BME280;4010;42.698;23.124;2023-02-01T01:17:40;118349.16;;;-140.64;91.16
7930;BME280;4010;42.698;23.124;2023-02-01T01:20:08;118349.16;;;-140.64;91.28
7930;BME280;4010;42.698;23.124;2023-02-01T01:22:35;118349.16;;;-140.64;91.21
7930;BME280;4010;42.698;23.124;2023-02-01T01:25:04;118349.16;;;-140.64;91.11
7930;BME280;4010;42.698;23.124;2023-02-01T01:27:31;118349.16;;;-140.64;91.59
7930;BME280;4010;42.698;23.124;2023-02-01T01:29:58;118349.16;;;-140.64;91.77
7930;BME280;4010;42.698;23.124;2023-02-01T01:32:24;118349.16;;;-140.64;91.79
7930;BME280;4010;42.698;23.124;2023-02-01T01:34:51;118349.16;;;-140.64;92.14
7930;BME280;4010;42.698;23.124;2023-02-01T01:37:17;118349.16;;;-140.64;92.44
7930;BME280;4010;42.698;23.124;2023-02-01T01:39:44;118349.16;;;-140.64;92.36
7930;BME280;4010;42.698;23.124;2023-02-01T01:42:12;118349.16;;;-140.64;92.04
7930;BME280;4010;42.698;23.124;2023-02-01T01:45:01;118349.16;;;-140.64;92.54
7930;BME280;4010;42.698;23.124;2023-02-01T01:47:33;118349.16;;;-140.64;92.51
7930;BME280;4010;42.698;23.124;2023-02-01T01:50:02;118349.16;;;-140.64;92.99
7930;BME280;4010;42.698;23.124;2023-02-01T01:52:29;118349.16;;;-140.64;92.50
7930;BME280;4010;42.698;23.124;2023-02-01T01:54:57;118349.16;;;-140.64;92.31
7930;BME280;4010;42.698;23.124;2023-02-01T01:57:28;118349.16;;;-140.64;91.98
7930;BME280;4010;42.698;23.124;2023-02-01T02:00:03;118349.16;;;-140.64;91.92
7930;BME280;4010;42.698;23.124;2023-02-01T02:02:32;118349.16;;;-140.64;91.59
7930;BME280;4010;42.698;23.124;2023-02-01T02:04:59;118349.16;;;-140.64;91.35
7930;BME280;4010;42.698;23.124;2023-02-01T02:07:28;118349.16;;;-140.64;91.26
7930;BME280;4010;42.698;23.124;2023-02-01T02:09:56;118349.16;;;-140.64;91.17
7930;BME280;4010;42.698;23.124;2023-02-01T02:12:23;118349.16;;;-140.64;91.68
7930;BME280;4010;42.698;23.124;2023-02-01T02:14:51;118349.16;;;-140.64;92.05
7930;BME280;4010;42.698;23.124;2023-02-01T02:17:36;118349.16;;;-140.64;92.37
7930;BME280;4010;42.698;23.124;2023-02-01T02:20:27;118349.16;;;-140.64;91.89
7930;BME280;4010;42.698;23.124;2023-02-01T02:23:17;118349.16;;;-140.64;92.40
7930;BME280;4010;42.698;23.124;2023-02-01T02:26:15;118349.16;;;-140.64;92.29
7930;BME280;4010;42.698;23.124;2023-02-01T02:29:05;118349.16;;;-140.64;92.47
7930;BME280;4010;42.698;23.124;2023-02-01T02:31:53;118349.16;;;-140.64;92.78
7930;BME280;4010;42.698;23.124;2023-02-01T02:34:27;118349.16;;;-140.64;92.66
7930;BME280;4010;42.698;23.124;2023-02-01T02:37:04;118349.16;;;-140.64;92.68
7930;BME280;4010;42.698;23.124;2023-02-01T02:39:41;118349.16;;;-140.64;92.90
7930;BME280;4010;42.698;23.124;2023-02-01T02:42:13;118349.16;;;-140.64;92.91
7930;BME280;4010;42.698;23.124;2023-02-01T02:45:19;118349.16;;;-140.64;92.47
7930;BME280;4010;42.698;23.124;2023-02-01T02:48:09;118349.16;;;-140.64;93.12
7930;BME280;4010;42.698;23.124;2023-02-01T02:50:44;118349.16;;;-140.64;92.39
7930;BME280;4010;42.698;23.124;2023-02-01T02:53:41;118349.16;;;-140.64;92.87
7930;BME280;4010;42.698;23.124;2023-02-01T02:56:30;118349.16;;;-140.64;92.94
7930;BME280;4010;42.698;23.124;2023-02-01T02:59:16;118349.16;;;-140.64;92.48
7930;BME280;4010;42.698;23.124;2023-02-01T03:02:03;118349.16;;;-140.64;92.19
7930;BME280;4010;42.698;23.124;2023-02-01T03:04:52;118349.16;;;-140.64;91.89
7930;BME280;4010;42.698;23.124;2023-02-01T03:07:52;118349.16;;;-140.64;91.95
7930;BME280;4010;42.698;23.124;2023-02-01T03:10:27;118349.16;;;-140.64;91.92
7930;BME280;4010;42.698;23.124;2023-02-01T03:13:00;118349.16;;;-140.64;91.82
7930;BME280;4010;42.698;23.124;2023-02-01T03:15:34;118349.16;;;-140.64;91.81
7930;BME280;4010;42.698;23.124;2023-02-01T03:18:06;118349.16;;;-140.64;91.80
7930;BME280;4010;42.698;23.124;2023-02-01T03:20:34;118349.16;;;-140.64;92.13
7930;BME280;4010;42.698;23.124;2023-02-01T03:23:04;118349.16;;;-140.64;92.10
7930;BME280;4010;42.698;23.124;2023-02-01T03:25:33;118349.16;;;-140.64;92.05
7930;BME280;4010;42.698;23.124;2023-02-01T03:28:03;118349.16;;;-140.64;92.27
7930;BME280;4010;42.698;23.124;2023-02-01T03:30:35;118349.16;;;-140.64;92.15
7930;BME280;4010;42.698;23.124;2023-02-01T03:33:05;118349.16;;;-140.64;91.45
7930;BME280;4010;42.698;23.124;2023-02-01T03:35:41;118349.16;;;-140.64;91.26
7930;BME280;4010;42.698;23.124;2023-02-01T03:38:18;118349.16;;;-140.64;91.73
7930;BME280;4010;42.698;23.124;2023-02-01T03:40:52;118349.16;;;-140.64;91.21
7930;BME280;4010;42.698;23.124;2023-02-01T03:43:21;118349.16;;;-140.64;91.30
7930;BME280;4010;42.698;23.124;2023-02-01T03:45:52;118349.16;;;-140.64;91.23
7930;BME280;4010;42.698;23.124;2023-02-01T03:48:22;118349.16;;;-140.64;91.16
7930;BME280;4010;42.698;23.124;2023-02-01T03:50:52;118349.16;;;-140.64;91.32
7930;BME280;4010;42.698;23.124;2023-02-01T03:53:22;118349.16;;;-140.64;92.33
7930;BME280;4010;42.698;23.124;2023-02-01T03:55:51;118349.16;;;-140.64;92.16
7930;BME280;4010;42.698;23.124;2023-02-01T03:58:20;118349.16;;;-140.64;92.28
7930;BME280;4010;42.698;23.124;2023-02-01T04:00:51;118349.16;;;-140.64;92.43
7930;BME280;4010;42.698;23.124;2023-02-01T04:03:19;118349.16;;;-140.64;91.80
7930;BME280;4010;42.698;23.124;2023-02-01T04:05:47;118349.16;;;-140.64;92.48
7930;BME280;4010;42.698;23.124;2023-02-01T04:08:13;118349.16;;;-140.64;90.58
7930;BME280;4010;42.698;23.124;2023-02-01T04:10:41;118349.16;;;-140.64;90.85
7930;BME280;4010;42.698;23.124;2023-02-01T04:13:09;118349.16;;;-140.64;90.99
7930;BME280;4010;42.698;23.124;2023-02-01T04:15:36;118349.16;;;-140.64;90.92
7930;BME280;4010;42.698;23.124;2023-02-01T04:18:02;118349.16;;;-140.64;91.31
7930;BME280;4010;42.698;23.124;2023-02-01T04:20:29;118349.16;;;-140.64;91.21
7930;BME280;4010;42.698;23.124;2023-02-01T04:22:56;118349.16;;;-140.64;91.71
7930;BME280;4010;42.698;23.124;2023-02-01T04:25:23;118349.16;;;-140.64;91.92
7930;BME280;4010;42.698;23.124;2023-02-01T04:27:51;118349.16;;;-140.64;92.39
7930;BME280;4010;42.698;23.124;2023-02-01T04:30:18;118349.16;;;-140.64;92.04
7930;BME280;4010;42.698;23.124;2023-02-01T04:32:48;118349.16;;;-140.64;91.71
7930;BME280;4010;42.698;23.124;2023-02-01T04:35:14;118349.16;;;-140.64;91.16
7930;BME280;4010;42.698;23.124;2023-02-01T04:37:43;118349.16;;;-140.64;91.59
7930;BME280;4010;42.698;23.124;2023-02-01T04:40:10;118349.16;;;-140.64;91.91
7930;BME280;4010;42.698;23.124;2023-02-01T04:42:37;118349.16;;;-140.64;91.78
7930;BME280;4010;42.698;23.124;2023-02-01T04:45:06;118349.16;;;-140.64;91.01
7930;BME280;4010;42.698;23.124;2023-02-01T04:47:34;118349.16;;;-140.64;91.14
7930;BME280;4010;42.698;23.124;2023-02-01T04:50:00;118349.16;;;-140.64;91.75
7930;BME280;4010;42.698;23.124;2023-02-01T04:52:27;118349.16;;;-140.64;91.63
7930;BME280;4010;42.698;23.124;2023-02-01T04:54:54;118349.16;;;-140.64;91.70
7930;BME280;4010;42.698;23.124;2023-02-01T04:57:23;118349.16;;;-140.64;91.38
7930;BME280;4010;42.698;23.124;2023-02-01T04:59:49;118349.16;;;-140.64;91.12
7930;BME280;4010;42.698;23.124;2023-02-01T05:02:17;118349.16;;;-140.64;91.12
7930;BME280;4010;42.698;23.124;2023-02-01T05:04:44;118349.16;;;-140.64;90.56
7930;BME280;4010;42.698;23.124;2023-02-01T05:07:11;118349.16;;;-140.64;90.34
7930;BME280;4010;42.698;23.124;2023-02-01T05:09:37;118349.16;;;-140.64;90.26
7930;BME280;4010;42.698;23.124;2023-02-01T05:12:05;118349.16;;;-140.64;90.74
7930;BME280;4010;42.698;23.124;2023-02-01T05:14:49;118349.16;;;-140.64;90.83
7930;BME280;4010;42.698;23.124;2023-02-01T05:17:17;118349.16;;;-140.64;91.13
7930;BME280;4010;42.698;23.124;2023-02-01T05:19:43;118349.16;;;-140.64;91.25
7930;BME280;4010;42.698;23.124;2023-02-01T05:22:10;118349.16;;;-140.64;91.37
7930;BME280;4010;42.698;23.124;2023-02-01T05:24:37;118349.16;;;-140.64;91.18
7930;BME280;4010;42.698;23.124;2023-02-01T05:27:03;118349.16;;;-140.64;91.12
7930;BME280;4010;42.698;23.124;2023-02-01T05:29:30;118349.16;;;-140.64;91.43
7930;BME280;4010;42.698;23.124;2023-02-01T05:31:56;118349.16;;;-140.64;90.89
7930;BME280;4010;42.698;23.124;2023-02-01T05:34:24;118349.16;;;-140.64;91.44
7930;BME280;4010;42.698;23.124;2023-02-01T05:36:51;118349.16;;;-140.64;91.63
7930;BME280;4010;42.698;23.124;2023-02-01T05:39:18;118349.16;;;-140.64;91.60
7930;BME280;4010;42.698;23.124;2023-02-01T05:41:45;118349.16;;;-140.64;91.82
7930;BME280;4010;42.698;23.124;2023-02-01T05:44:11;118349.16;;;-140.64;91.78
7930;BME280;4010;42.698;23.124;2023-02-01T05:46:38;118349.16;;;-140.64;92.03
7930;BME280;4010;42.698;23.124;2023-02-01T05:49:05;118349.16;;;-140.64;92.39
7930;BME280;4010;42.698;23.124;2023-02-01T05:51:33;118349.16;;;-140.64;92.34
7930;BME280;4010;42.698;23.124;2023-02-01T05:53:59;118349.16;;;-140.64;91.77
7930;BME280;4010;42.698;23.124;2023-02-01T05:56:26;118349.16;;;-140.64;91.33
7930;BME280;4010;42.698;23.124;2023-02-01T05:58:53;118349.16;;;-140.64;91.61
7930;BME280;4010;42.698;23.124;2023-02-01T06:01:20;118349.16;;;-140.64;92.03
7930;BME280;4010;42.698;23.124;2023-02-01T06:03:46;118349.16;;;-140.64;91.80
7930;BME280;4010;42.698;23.124;2023-02-01T06:06:13;118349.16;;;-140.64;91.82
7930;BME280;4010;42.698;23.124;2023-02-01T06:08:41;118349.16;;;-140.64;91.77
7930;BME280;4010;42.698;23.124;2023-02-01T06:11:08;118349.16;;;-140.64;91.65
7930;BME280;4010;42.698;23.124;2023-02-01T06:13:34;118349.16;;;-140.64;91.77
7930;BME280;4010;42.698;23.124;2023-02-01T06:16:04;118349.16;;;-140.64;91.32
7930;BME280;4010;42.698;23.124;2023-02-01T06:18:32;118349.16;;;-140.64;91.28
7930;BME280;4010;42.698;23.124;2023-02-01T06:21:00;118349.16;;;-140.64;91.23
7930;BME280;4010;42.698;23.124;2023-02-01T06:23:27;118349.16;;;-140.64;91.05
7930;BME280;4010;42.698;23.124;2023-02-01T06:26:00;118349.16;;;-140.64;91.22
7930;BME280;4010;42.698;23.124;2023-02-01T06:28:28;118349.16;;;-140.64;91.40
7930;BME280;4010;42.698;23.124;2023-02-01T06:30:55;118349.16;;;-140.64;91.31
7930;BME280;4010;42.698;23.124;2023-02-01T06:33:23;118349.16;;;-140.64;90.90
7930;BME280;4010;42.698;23.124;2023-02-01T06:35:56;118349.16;;;-140.64;90.81
7930;BME280;4010;42.698;23.124;2023-02-01T06:38:23;118349.16;;;-140.64;90.19
7930;BME280;4010;42.698;23.124;2023-02-01T06:40:52;118349.16;;;-140.64;90.26
7930;BME280;4010;42.698;23.124;2023-02-01T06:43:20;118349.16;;;-140.64;89.42
7930;BME280;4010;42.698;23.124;2023-02-01T06:45:47;118349.16;;;-140.64;88.68
7930;BME280;4010;42.698;23.124;2023-02-01T06:48:13;118349.16;;;-140.64;89.14
7930;BME280;4010;42.698;23.124;2023-02-01T06:50:40;118349.16;;;-140.64;88.45
7930;BME280;4010;42.698;23.124;2023-02-01T06:53:07;118349.16;;;-140.64;87.88
7930;BME280;4010;42.698;23.124;2023-02-01T06:55:33;118349.16;;;-140.64;87.66
7930;BME280;4010;42.698;23.124;2023-02-01T06:58:00;118349.16;;;-140.64;87.64
7930;BME280;4010;42.698;23.124;2023-02-01T07:00:28;118349.16;;;-140.64;87.66
7930;BME280;4010;42.698;23.124;2023-02-01T07:02:57;118349.16;;;-140.64;87.74
7930;BME280;4010;42.698;23.124;2023-02-01T07:05:24;118349.16;;;-140.64;87.74
7930;BME280;4010;42.698;23.124;2023-02-01T07:07:50;118349.16;;;-140.64;87.37
7930;BME280;4010;42.698;23.124;2023-02-01T07:10:17;118349.16;;;-140.64;87.85
7930;BME280;4010;42.698;23.124;2023-02-01T07:12:44;118349.16;;;-140.64;86.84
7930;BME280;4010;42.698;23.124;2023-02-01T07:15:10;118349.16;;;-140.64;86.94
7930;BME280;4010;42.698;23.124;2023-02-01T07:17:38;118349.16;;;-140.64;87.08
7930;BME280;4010;42.698;23.124;2023-02-01T07:20:06;118349.16;;;-140.64;86.69
7930;BME280;4010;42.698;23.124;2023-02-01T07:22:34;118349.16;;;-140.64;86.62
7930;BME280;4010;42.698;23.124;2023-02-01T07:25:00;118349.16;;;-140.64;86.38
7930;BME280;4010;42.698;23.124;2023-02-01T07:27:27;118349.16;;;-140.64;86.24
7930;BME280;4010;42.698;23.124;2023-02-01T07:29:54;118349.16;;;-140.64;86.57
7930;BME280;4010;42.698;23.124;2023-02-01T07:32:21;118349.16;;;-140.64;85.83
7930;BME280;4010;42.698;23.124;2023-02-01T07:34:49;118349.16;;;-140.64;85.07
7930;BME280;4010;42.698;23.124;2023-02-01T07:37:16;118349.16;;;-140.64;84.54
7930;BME280;4010;42.698;23.124;2023-02-01T07:39:43;118349.16;;;-140.64;85.31
7930;BME280;4010;42.698;23.124;2023-02-01T07:42:10;118349.16;;;-140.64;84.46
7930;BME280;4010;42.698;23.124;2023-02-01T07:44:37;118349.16;;;-140.64;85.04
7930;BME280;4010;42.698;23.124;2023-02-01T07:47:03;118349.16;;;-140.64;84.29
7930;BME280;4010;42.698;23.124;2023-02-01T07:49:30;118349.16;;;-140.64;84.70
7930;BME280;4010;42.698;23.124;2023-02-01T07:51:58;118349.16;;;-140.64;84.02
7930;BME280;4010;42.698;23.124;2023-02-01T07:54:25;118349.16;;;-140.64;83.50
7930;BME280;4010;42.698;23.124;2023-02-01T07:56:52;118349.16;;;-140.64;83.07
7930;BME280;4010;42.698;23.124;2023-02-01T07:59:19;118349.16;;;-140.64;82.29
7930;BME280;4010;42.698;23.124;2023-02-01T08:01:46;118349.16;;;-140.64;80.88
7930;BME280;4010;42.698;23.124;2023-02-01T08:04:12;118349.16;;;-140.64;81.38
7930;BME280;4010;42.698;23.124;2023-02-01T08:06:39;118349.16;;;-140.64;81.88
7930;BME280;4010;42.698;23.124;2023-02-01T08:09:07;118349.16;;;-140.64;81.39
7930;BME280;4010;42.698;23.124;2023-02-01T08:11:35;118349.16;;;-140.64;79.94
7930;BME280;4010;42.698;23.124;2023-02-01T08:14:03;118349.16;;;-140.64;79.81
7930;BME280;4010;42.698;23.124;2023-02-01T08:16:30;118349.16;;;-140.64;79.83
7930;BME280;4010;42.698;23.124;2023-02-01T08:18:56;118349.16;;;-140.64;79.84
7930;BME280;4010;42.698;23.124;2023-02-01T08:21:25;118349.16;;;-140.64;78.62
7930;BME280;4010;42.698;23.124;2023-02-01T08:23:53;118349.16;;;-140.64;78.77
7930;BME280;4010;42.698;23.124;2023-02-01T08:26:25;118349.16;;;-140.64;78.55
7930;BME280;4010;42.698;23.124;2023-02-01T08:28:54;118349.16;;;-140.64;79.90
7930;BME280;4010;42.698;23.124;2023-02-01T08:31:22;118349.16;;;-140.64;80.84
7930;BME280;4010;42.698;23.124;2023-02-01T08:33:51;118349.16;;;-140.64;79.54
7930;BME280;4010;42.698;23.124;2023-02-01T08:36:18;118349.16;;;-140.64;78.64
7930;BME280;4010;42.698;23.124;2023-02-01T08:38:45;118349.16;;;-140.64;77.80
7930;BME280;4010;42.698;23.124;2023-02-01T08:41:13;118349.16;;;-140.64;77.60
7930;BME280;4010;42.698;23.124;2023-02-01T08:43:42;118349.16;;;-140.64;77.12
7930;BME280;4010;42.698;23.124;2023-02-01T08:46:10;118349.16;;;-140.64;76.45
7930;BME280;4010;42.698;23.124;2023-02-01T08:48:38;118349.16;;;-140.64;76.75
7930;BME280;4010;42.698;23.124;2023-02-01T08:51:07;118349.16;;;-140.64;76.44
7930;BME280;4010;42.698;23.124;2023-02-01T08:53:35;118349.16;;;-140.64;76.16
7930;BME280;4010;42.698;23.124;2023-02-01T08:56:02;118349.16;;;-140.64;75.64
7930;BME280;4010;42.698;23.124;2023-02-01T08:58:29;118349.16;;;-140.64;75.27
7930;BME280;4010;42.698;23.124;2023-02-01T09:01:02;118349.16;;;-140.64;75.60
7930;BME280;4010;42.698;23.124;2023-02-01T09:03:29;118349.16;;;-140.64;73.99
7930;BME280;4010;42.698;23.124;2023-02-01T09:06:00;118349.16;;;-140.64;74.21
7930;BME280;4010;42.698;23.124;2023-02-01T09:08:26;118349.16;;;-140.64;73.44
7930;BME280;4010;42.698;23.124;2023-02-01T09:10:53;118349.16;;;-140.64;71.66
7930;BME280;4010;42.698;23.124;2023-02-01T09:13:20;118349.16;;;-140.64;70.82
7930;BME280;4010;42.698;23.124;2023-02-01T09:15:50;118349.16;;;-140.64;69.27
7930;BME280;4010;42.698;23.124;2023-02-01T09:18:18;118349.16;;;-140.64;68.29
7930;BME280;4010;42.698;23.124;2023-02-01T09:20:45;118349.16;;;-140.64;69.24
7930;BME280;4010;42.698;23.124;2023-02-01T09:23:11;118349.16;;;-140.64;69.62
7930;BME280;4010;42.698;23.124;2023-02-01T09:25:38;118349.16;;;-140.64;67.55
7930;BME280;4010;42.698;23.124;2023-02-01T09:28:05;118349.16;;;-140.64;65.79
7930;BME280;4010;42.698;23.124;2023-02-01T09:30:34;118349.16;;;-140.64;67.60
7930;BME280;4010;42.698;23.124;2023-02-01T09:33:02;118349.16;;;-140.64;67.82
7930;BME280;4010;42.698;23.124;2023-02-01T09:35:30;118349.16;;;-140.64;68.81
7930;BME280;4010;42.698;23.124;2023-02-01T09:37:57;118349.16;;;-140.64;67.60
7930;BME280;4010;42.698;23.124;2023-02-01T09:40:24;118349.16;;;-140.64;66.73
7930;BME280;4010;42.698;23.124;2023-02-01T09:43:11;118349.16;;;-140.64;66.80
7930;BME280;4010;42.698;23.124;2023-02-01T09:45:48;118349.16;;;-140.64;64.78
7930;BME280;4010;42.698;23.124;2023-02-01T09:48:21;118349.16;;;-140.64;67.39
7930;BME280;4010;42.698;23.124;2023-02-01T09:50:55;118349.16;;;-140.64;65.10
7930;BME280;4010;42.698;23.124;2023-02-01T09:53:25;118349.16;;;-140.64;64.18
7930;BME280;4010;42.698;23.124;2023-02-01T09:55:55;118349.16;;;-140.64;67.11
7930;BME280;4010;42.698;23.124;2023-02-01T09:58:28;118349.16;;;-140.64;66.02
7930;BME280;4010;42.698;23.124;2023-02-01T10:00:58;118349.16;;;-140.64;65.38
7930;BME280;4010;42.698;23.124;2023-02-01T10:03:29;118349.16;;;-140.64;65.74
7930;BME280;4010;42.698;23.124;2023-02-01T10:06:10;118349.16;;;-140.64;64.93
7930;BME280;4010;42.698;23.124;2023-02-01T10:08:57;118349.16;;;-140.64;66.89
7930;BME280;4010;42.698;23.124;2023-02-01T10:11:32;118349.16;;;-140.64;68.34
7930;BME280;4010;42.698;23.124;2023-02-01T10:14:21;118349.16;;;-140.64;67.97
7930;BME280;4010;42.698;23.124;2023-02-01T10:16:59;118349.16;;;-140.64;68.33
7930;BME280;4010;42.698;23.124;2023-02-01T10:19:39;118349.16;;;-140.64;67.28
7930;BME280;4010;42.698;23.124;2023-02-01T10:22:26;118349.16;;;-140.64;65.08
7930;BME280;4010;42.698;23.124;2023-02-01T10:25:04;118349.16;;;-140.64;66.78
7930;BME280;4010;42.698;23.124;2023-02-01T10:27:35;118349.16;;;-140.64;67.08
7930;BME280;4010;42.698;23.124;2023-02-01T10:30:06;118349.16;;;-140.64;67.56
7930;BME280;4010;42.698;23.124;2023-02-01T10:32:40;118349.16;;;-140.64;65.14
7930;BME280;4010;42.698;23.124;2023-02-01T10:35:12;118349.16;;;-140.64;66.14
7930;BME280;4010;42.698;23.124;2023-02-01T10:37:42;118349.16;;;-140.64;66.75
7930;BME280;4010;42.698;23.124;2023-02-01T10:40:16;118349.16;;;-140.64;66.30
7930;BME280;4010;42.698;23.124;2023-02-01T10:42:44;118349.16;;;-140.64;66.12
7930;BME280;4010;42.698;23.124;2023-02-01T10:45:15;118349.16;;;-140.64;69.09
7930;BME280;4010;42.698;23.124;2023-02-01T10:47:43;118349.16;;;-140.64;67.90
7930;BME280;4010;42.698;23.124;2023-02-01T10:50:16;118349.16;;;-140.64;67.29
7930;BME280;4010;42.698;23.124;2023-02-01T10:52:49;118349.16;;;-140.64;67.99
7930;BME280;4010;42.698;23.124;2023-02-01T10:55:29;118349.16;;;-140.64;67.24
7930;BME280;4010;42.698;23.124;2023-02-01T10:57:57;118349.16;;;-140.64;66.50
7930;BME280;4010;42.698;23.124;2023-02-01T11:00:24;118349.16;;;-140.64;66.26
7930;BME280;4010;42.698;23.124;2023-02-01T11:02:52;118349.16;;;-140.64;68.25
7930;BME280;4010;42.698;23.124;2023-02-01T11:05:19;118349.16;;;-140.64;67.54
7930;BME280;4010;42.698;23.124;2023-02-01T11:07:51;118349.16;;;-140.64;68.31
7930;BME280;4010;42.698;23.124;2023-02-01T11:10:38;118349.16;;;-140.64;67.33
7930;BME280;4010;42.698;23.124;2023-02-01T11:13:13;118349.16;;;-140.64;67.71
7930;BME280;4010;42.698;23.124;2023-02-01T11:15:43;118349.16;;;-140.64;68.21
7930;BME280;4010;42.698;23.124;2023-02-01T11:18:16;118349.16;;;-140.64;68.80
7930;BME280;4010;42.698;23.124;2023-02-01T11:20:44;118349.16;;;-140.64;68.84
7930;BME280;4010;42.698;23.124;2023-02-01T11:23:16;118349.16;;;-140.64;68.77
7930;BME280;4010;42.698;23.124;2023-02-01T11:25:49;118349.16;;;-140.64;69.37
7930;BME280;4010;42.698;23.124;2023-02-01T11:28:17;118349.16;;;-140.64;68.24
7930;BME280;4010;42.698;23.124;2023-02-01T11:30:45;118349.16;;;-140.64;68.07
7930;BME280;4010;42.698;23.124;2023-02-01T11:33:16;118349.16;;;-140.64;68.46
7930;BME280;4010;42.698;23.124;2023-02-01T11:35:44;118349.16;;;-140.64;68.98
7930;BME280;4010;42.698;23.124;2023-02-01T11:38:21;118349.16;;;-140.64;67.81
7930;BME280;4010;42.698;23.124;2023-02-01T11:40:48;118349.16;;;-140.64;67.62
7930;BME280;4010;42.698;23.124;2023-02-01T11:43:18;118349.16;;;-140.64;66.36
7930;BME280;4010;42.698;23.124;2023-02-01T11:45:57;118349.16;;;-140.64;65.79
7930;BME280;4010;42.698;23.124;2023-02-01T11:48:26;118349.16;;;-140.64;67.26
7930;BME280;4010;42.698;23.124;2023-02-01T11:51:00;118349.16;;;-140.64;66.37
7930;BME280;4010;42.698;23.124;2023-02-01T11:53:41;118349.16;;;-140.64;64.99
7930;BME280;4010;42.698;23.124;2023-02-01T11:56:21;118349.16;;;-140.64;65.09
7930;BME280;4010;42.698;23.124;2023-02-01T12:02:02;118349.16;;;-140.64;65.63
7930;BME280;4010;42.698;23.124;2023-02-01T12:07:34;118349.16;;;-140.64;63.48
7930;BME280;4010;42.698;23.124;2023-02-01T12:10:17;118349.16;;;-140.64;63.93
7930;BME280;4010;42.698;23.124;2023-02-01T12:12:54;118349.16;;;-140.64;63.39
7930;BME280;4010;42.698;23.124;2023-02-01T12:15:40;118349.16;;;-140.64;62.45
7930;BME280;4010;42.698;23.124;2023-02-01T12:21:22;118349.16;;;-140.64;61.43
7930;BME280;4010;42.698;23.124;2023-02-01T12:24:03;118349.16;;;-140.64;62.09
7930;BME280;4010;42.698;23.124;2023-02-01T12:26:44;118349.16;;;-140.64;61.59
7930;BME280;4010;42.698;23.124;2023-02-01T12:29:29;118349.16;;;-140.64;61.95
7930;BME280;4010;42.698;23.124;2023-02-01T12:32:09;118349.16;;;-140.64;60.53
7930;BME280;4010;42.698;23.124;2023-02-01T12:34:50;118349.16;;;-140.64;60.50
7930;BME280;4010;42.698;23.124;2023-02-01T12:37:31;118349.16;;;-140.64;60.84
7930;BME280;4010;42.698;23.124;2023-02-01T12:40:14;118349.16;;;-140.64;61.14
7930;BME280;4010;42.698;23.124;2023-02-01T12:42:53;118349.16;;;-140.64;60.13
7930;BME280;4010;42.698;23.124;2023-02-01T12:45:28;118349.16;;;-140.64;59.72
7930;BME280;4010;42.698;23.124;2023-02-01T12:48:02;118349.16;;;-140.64;59.16
7930;BME280;4010;42.698;23.124;2023-02-01T12:50:39;118349.16;;;-140.64;58.97
7930;BME280;4010;42.698;23.124;2023-02-01T12:53:14;118349.16;;;-140.64;59.09
7930;BME280;4010;42.698;23.124;2023-02-01T12:55:49;118349.16;;;-140.64;60.36
7930;BME280;4010;42.698;23.124;2023-02-01T12:58:22;118349.16;;;-140.64;58.92
7930;BME280;4010;42.698;23.124;2023-02-01T13:00:55;118349.16;;;-140.64;60.71
7930;BME280;4010;42.698;23.124;2023-02-01T13:03:32;118349.16;;;-140.64;61.20
7930;BME280;4010;42.698;23.124;2023-02-01T13:06:03;118349.16;;;-140.64;60.20
7930;BME280;4010;42.698;23.124;2023-02-01T13:08:39;118349.16;;;-140.64;60.57